createdAt,value
2017-11-16T00:00:49.502Z,8.50
2017-11-16T00:03:17.055Z,8.40
2017-11-16T00:05:44.624Z,8.50
2017-11-16T00:08:12.153Z,8.50
2017-11-16T00:10:40.491Z,8.50
2017-11-16T00:13:08.036Z,8.50
2017-11-16T00:15:35.600Z,8.50
2017-11-16T00:18:03.162Z,8.50
2017-11-16T00:20:30.738Z,8.50
2017-11-16T00:22:58.277Z,8.50
2017-11-16T00:25:25.834Z,8.50
2017-11-16T00:27:53.438Z,8.50
2017-11-16T00:30:21.007Z,8.50
2017-11-16T00:32:48.560Z,8.50
2017-11-16T00:35:16.143Z,8.50
2017-11-16T00:37:44.464Z,8.50
2017-11-16T00:40:12.015Z,8.50
2017-11-16T00:42:39.578Z,8.50
2017-11-16T00:45:07.121Z,8.40
2017-11-16T00:47:35.442Z,8.40
2017-11-16T00:50:03.015Z,8.40
2017-11-16T00:52:30.561Z,8.50
2017-11-16T00:54:58.116Z,8.40
2017-11-16T00:57:25.696Z,8.50
2017-11-16T00:59:53.262Z,8.40
2017-11-16T01:02:20.820Z,8.40
2017-11-16T01:04:48.409Z,8.40
2017-11-16T01:07:15.952Z,8.40
2017-11-16T01:09:43.518Z,8.40
2017-11-16T01:12:11.072Z,8.40
2017-11-16T01:14:38.623Z,8.40
2017-11-16T01:17:06.177Z,8.40
2017-11-16T01:19:33.706Z,8.40
2017-11-16T01:22:01.291Z,8.40
2017-11-16T01:24:28.822Z,8.40
2017-11-16T01:26:57.121Z,8.40
2017-11-16T01:29:24.708Z,8.40
2017-11-16T01:31:52.243Z,8.40
2017-11-16T01:34:19.798Z,8.30
2017-11-16T01:36:47.379Z,8.30
2017-11-16T01:39:14.921Z,8.30
2017-11-16T01:41:42.490Z,8.40
2017-11-16T01:44:10.028Z,8.40
2017-11-16T01:46:38.363Z,8.30
2017-11-16T01:49:05.921Z,8.30
2017-11-16T01:51:33.505Z,8.40
2017-11-16T01:54:01.074Z,8.30
2017-11-16T01:56:28.665Z,8.30
2017-11-16T01:58:56.956Z,8.30
2017-11-16T02:01:24.510Z,8.30
2017-11-16T02:03:52.062Z,8.30
2017-11-16T02:06:20.367Z,8.30
2017-11-16T02:08:47.947Z,8.30
2017-11-16T02:11:15.518Z,8.30
2017-11-16T02:13:43.084Z,8.30
2017-11-16T02:16:10.627Z,8.30
2017-11-16T02:18:38.212Z,8.30
2017-11-16T02:21:05.781Z,8.30
2017-11-16T02:23:33.322Z,8.30
2017-11-16T02:26:00.905Z,8.30
2017-11-16T02:28:28.454Z,8.30
2017-11-16T02:30:56.032Z,8.20
2017-11-16T02:33:23.568Z,8.30
2017-11-16T02:35:51.123Z,8.30
2017-11-16T02:38:18.691Z,8.30
2017-11-16T02:40:46.230Z,8.30
2017-11-16T02:43:13.776Z,8.30
2017-11-16T02:45:41.348Z,8.30
2017-11-16T02:48:08.883Z,8.30
2017-11-16T02:50:37.201Z,8.30
2017-11-16T02:53:04.773Z,8.30
2017-11-16T02:55:32.332Z,8.30
2017-11-16T02:57:59.927Z,8.30
2017-11-16T03:00:27.463Z,8.30
2017-11-16T03:02:55.025Z,8.30
2017-11-16T03:05:22.581Z,8.30
2017-11-16T03:07:50.146Z,8.30
2017-11-16T03:10:17.712Z,8.30
2017-11-16T03:12:45.267Z,8.20
2017-11-16T03:15:12.830Z,8.20
2017-11-16T03:17:40.377Z,8.30
2017-11-16T03:20:07.935Z,8.20
2017-11-16T03:22:35.512Z,8.20
2017-11-16T03:25:03.156Z,8.30
2017-11-16T03:27:30.716Z,8.30
2017-11-16T03:29:58.307Z,8.30
2017-11-16T03:32:25.856Z,8.30
2017-11-16T03:34:53.417Z,8.30
2017-11-16T03:37:20.952Z,8.30
2017-11-16T03:39:48.517Z,8.40
2017-11-16T03:42:16.073Z,8.40
2017-11-16T03:44:44.370Z,8.30
2017-11-16T03:47:11.935Z,8.30
2017-11-16T03:49:39.493Z,8.30
2017-11-16T03:52:07.049Z,8.30
2017-11-16T03:54:34.619Z,8.30
2017-11-16T03:57:02.158Z,8.40
2017-11-16T03:59:30.462Z,8.30
2017-11-16T04:01:58.036Z,8.30
2017-11-16T04:04:25.571Z,8.30
2017-11-16T04:06:53.130Z,8.30
2017-11-16T04:09:21.429Z,8.30
2017-11-16T04:11:48.981Z,8.20
2017-11-16T04:14:16.534Z,8.20
2017-11-16T04:16:44.131Z,8.20
2017-11-16T04:19:11.692Z,8.20
2017-11-16T04:21:39.230Z,8.20
2017-11-16T04:24:06.783Z,8.20
2017-11-16T04:26:34.341Z,8.10
2017-11-16T04:29:01.913Z,8.20
2017-11-16T04:31:29.466Z,8.10
2017-11-16T04:33:57.061Z,8.10
2017-11-16T04:36:24.624Z,8.10
2017-11-16T04:38:52.175Z,8.10
2017-11-16T04:41:19.705Z,8.10
2017-11-16T04:43:48.045Z,8.10
2017-11-16T04:46:15.612Z,8.10
2017-11-16T04:48:43.184Z,8.10
2017-11-16T04:51:10.732Z,8.10
2017-11-16T04:53:38.321Z,8.10
2017-11-16T04:56:06.622Z,8.10
2017-11-16T04:58:34.184Z,8.10
2017-11-16T05:01:01.751Z,8.10
2017-11-16T05:03:29.306Z,8.10
2017-11-16T05:05:56.884Z,8.10
2017-11-16T05:08:24.444Z,8.10
2017-11-16T05:10:52.008Z,8.10
2017-11-16T05:13:19.546Z,8.10
2017-11-16T05:15:47.860Z,8.10
2017-11-16T05:18:15.436Z,8.10
2017-11-16T05:20:43.006Z,8.00
2017-11-16T05:23:10.551Z,8.00
2017-11-16T05:25:38.122Z,8.10
2017-11-16T05:28:05.681Z,8.10
2017-11-16T05:30:33.977Z,8.00
2017-11-16T05:33:01.531Z,8.00
2017-11-16T05:35:29.102Z,8.00
2017-11-16T05:37:56.661Z,8.00
2017-11-16T05:40:24.205Z,8.00
2017-11-16T05:42:51.787Z,8.00
2017-11-16T05:45:19.343Z,8.00
2017-11-16T05:47:46.938Z,8.00
2017-11-16T05:50:15.274Z,8.00
2017-11-16T05:52:42.811Z,8.00
2017-11-16T05:55:10.381Z,8.00
2017-11-16T05:57:37.933Z,8.00
2017-11-16T06:00:05.515Z,8.00
2017-11-16T06:02:33.088Z,7.90
2017-11-16T06:05:00.629Z,7.90
2017-11-16T06:07:28.180Z,7.90
2017-11-16T06:09:55.759Z,7.90
2017-11-16T06:12:23.299Z,7.90
2017-11-16T06:14:50.877Z,7.90
2017-11-16T06:17:18.429Z,7.90
2017-11-16T06:19:45.991Z,7.90
2017-11-16T06:22:13.522Z,7.80
2017-11-16T06:24:41.854Z,7.90
2017-11-16T06:27:09.387Z,7.90
2017-11-16T06:29:36.937Z,7.90
2017-11-16T06:32:04.509Z,7.90
2017-11-16T06:34:32.045Z,7.90
2017-11-16T06:37:00.374Z,7.90
2017-11-16T06:39:27.956Z,7.90
2017-11-16T06:41:55.515Z,7.90
2017-11-16T06:44:23.080Z,7.90
2017-11-16T06:46:50.616Z,7.90
2017-11-16T06:49:18.173Z,7.90
2017-11-16T06:51:45.705Z,7.90
2017-11-16T06:54:14.022Z,7.80
2017-11-16T06:56:41.603Z,7.80
2017-11-16T06:59:09.142Z,7.80
2017-11-16T07:01:36.709Z,7.80
2017-11-16T07:04:04.249Z,7.70
2017-11-16T07:06:31.788Z,7.70
2017-11-16T07:09:00.128Z,7.70
2017-11-16T07:11:27.677Z,7.60
2017-11-16T07:13:55.980Z,7.60
2017-11-16T07:16:23.566Z,7.60
2017-11-16T07:18:51.873Z,7.60
2017-11-16T07:21:19.458Z,7.60
2017-11-16T07:23:47.011Z,7.60
2017-11-16T07:26:14.570Z,7.60
2017-11-16T07:28:42.128Z,7.60
2017-11-16T07:31:09.663Z,7.60
2017-11-16T07:33:37.998Z,7.60
2017-11-16T07:36:05.537Z,7.60
2017-11-16T07:38:33.085Z,7.60
2017-11-16T07:41:00.658Z,7.60
2017-11-16T07:43:28.330Z,7.60
2017-11-16T07:45:55.912Z,7.70
2017-11-16T07:48:23.447Z,7.70
2017-11-16T07:50:50.995Z,7.80
2017-11-16T07:53:18.621Z,7.80
2017-11-16T07:55:46.170Z,7.70
2017-11-16T07:58:13.752Z,7.70
2017-11-16T08:00:42.091Z,7.70
2017-11-16T08:03:09.645Z,7.80
2017-11-16T08:05:37.201Z,7.80
2017-11-16T08:08:04.776Z,7.80
2017-11-16T08:10:32.351Z,7.80
2017-11-16T08:12:59.883Z,7.80
2017-11-16T08:15:27.435Z,7.90
2017-11-16T08:17:54.994Z,7.80
2017-11-16T08:20:22.522Z,7.80
2017-11-16T08:22:50.844Z,7.80
2017-11-16T08:25:18.401Z,7.80
2017-11-16T08:27:45.973Z,7.90
2017-11-16T08:30:13.513Z,7.90
2017-11-16T08:32:41.069Z,7.90
2017-11-16T08:35:08.669Z,7.90
2017-11-16T08:37:36.256Z,8.00
2017-11-16T08:40:03.826Z,8.00
2017-11-16T08:42:31.404Z,8.00
2017-11-16T08:44:59.732Z,8.10
2017-11-16T08:47:27.281Z,8.10
2017-11-16T08:49:54.870Z,8.20
2017-11-16T08:52:22.461Z,8.20
2017-11-16T08:54:50.816Z,8.10
2017-11-16T08:57:18.379Z,8.10
2017-11-16T08:59:45.978Z,8.00
2017-11-16T09:02:14.307Z,8.00
2017-11-16T09:04:41.872Z,8.00
2017-11-16T09:07:09.448Z,8.10
2017-11-16T09:09:37.801Z,8.10
2017-11-16T09:12:05.399Z,8.10
2017-11-16T09:14:32.942Z,8.10
2017-11-16T09:17:00.511Z,8.10
2017-11-16T09:19:28.086Z,8.10
2017-11-16T09:21:56.457Z,8.10
2017-11-16T09:24:24.037Z,8.10
2017-11-16T09:26:52.430Z,8.10
2017-11-16T09:29:20.787Z,8.20
2017-11-16T09:31:48.387Z,8.20
2017-11-16T09:34:15.960Z,8.20
2017-11-16T09:36:43.529Z,8.10
2017-11-16T09:39:11.121Z,8.10
2017-11-16T09:41:38.691Z,8.10
2017-11-16T09:44:06.289Z,8.10
2017-11-16T09:46:34.602Z,8.30
2017-11-16T09:49:02.156Z,8.20
2017-11-16T09:51:29.745Z,8.30
2017-11-16T09:53:57.277Z,8.30
2017-11-16T09:56:24.814Z,8.40
2017-11-16T09:58:53.137Z,8.40
2017-11-16T10:01:20.679Z,8.40
2017-11-16T10:03:48.268Z,8.40
2017-11-16T10:06:15.824Z,8.40
2017-11-16T10:08:43.366Z,8.30
2017-11-16T10:11:10.932Z,8.30
2017-11-16T10:13:38.485Z,8.30
2017-11-16T10:16:06.050Z,8.30
2017-11-16T10:18:33.583Z,8.40
2017-11-16T10:21:01.922Z,8.60
2017-11-16T10:23:29.484Z,8.60
2017-11-16T10:25:57.044Z,8.70
2017-11-16T10:28:24.607Z,8.80
2017-11-16T10:30:52.153Z,8.80
2017-11-16T10:33:19.697Z,8.80
2017-11-16T10:35:47.275Z,8.80
2017-11-16T10:38:14.813Z,8.90
2017-11-16T10:40:42.402Z,8.80
2017-11-16T10:43:09.965Z,8.80
2017-11-16T10:45:37.529Z,8.80
2017-11-16T10:48:05.094Z,8.80
2017-11-16T10:50:32.681Z,8.90
2017-11-16T10:53:00.245Z,9.00
2017-11-16T10:55:27.806Z,9.10
2017-11-16T10:57:55.354Z,9.10
2017-11-16T11:00:22.936Z,9.10
2017-11-16T11:02:50.474Z,9.20
2017-11-16T11:05:18.797Z,9.20
2017-11-16T11:07:47.204Z,9.20
2017-11-16T11:10:14.746Z,9.20
2017-11-16T11:12:42.320Z,9.20
2017-11-16T11:15:09.858Z,9.20
2017-11-16T11:17:38.220Z,9.20
2017-11-16T11:20:05.778Z,9.20
2017-11-16T11:22:33.359Z,9.30
2017-11-16T11:25:01.689Z,9.40
2017-11-16T11:27:29.264Z,9.40
2017-11-16T11:29:56.828Z,9.40
2017-11-16T11:32:24.370Z,9.50
2017-11-16T11:34:51.938Z,9.60
2017-11-16T11:37:19.494Z,9.60
2017-11-16T11:39:47.044Z,9.50
2017-11-16T11:42:14.631Z,9.40
2017-11-16T11:44:42.166Z,9.40
2017-11-16T11:47:09.752Z,9.40
2017-11-16T11:49:37.299Z,9.50
2017-11-16T11:52:04.842Z,9.60
2017-11-16T11:54:32.414Z,9.60
2017-11-16T11:56:59.960Z,9.60
2017-11-16T11:59:27.537Z,9.70
2017-11-16T12:01:56.005Z,9.60
2017-11-16T12:04:23.534Z,9.70
2017-11-16T12:06:51.095Z,9.70
2017-11-16T12:09:18.639Z,9.70
2017-11-16T12:11:47.707Z,9.60
2017-11-16T12:14:15.297Z,9.60
2017-11-16T12:16:42.835Z,9.50
2017-11-16T12:19:10.378Z,9.50
2017-11-16T12:21:37.971Z,9.50
2017-11-16T12:24:05.514Z,9.50
2017-11-16T12:26:33.050Z,9.50
2017-11-16T12:29:01.388Z,9.60
2017-11-16T12:31:28.958Z,9.60
2017-11-16T12:33:56.553Z,9.70
2017-11-16T12:36:24.097Z,9.60
2017-11-16T12:38:52.422Z,9.50
2017-11-16T12:41:20.001Z,9.50
2017-11-16T12:43:47.557Z,9.50
2017-11-16T12:46:15.107Z,9.50
2017-11-16T12:48:42.681Z,9.60
2017-11-16T12:51:10.252Z,9.60
2017-11-16T12:53:37.820Z,9.60
2017-11-16T12:56:05.471Z,9.60
2017-11-16T12:58:33.817Z,9.60
2017-11-16T13:01:01.360Z,9.60
2017-11-16T13:03:29.726Z,9.60
2017-11-16T13:05:58.038Z,9.60
2017-11-16T13:08:25.601Z,9.50
2017-11-16T13:10:53.182Z,9.60
2017-11-16T13:13:20.741Z,9.60
2017-11-16T13:15:48.306Z,9.60
2017-11-16T13:18:15.905Z,9.70
2017-11-16T13:20:43.442Z,9.70
2017-11-16T13:23:11.014Z,9.70
2017-11-16T13:25:38.595Z,9.70
2017-11-16T13:28:06.156Z,9.80
2017-11-16T13:30:33.729Z,9.80
2017-11-16T13:33:02.081Z,9.70
2017-11-16T13:35:29.646Z,9.70
2017-11-16T13:37:57.201Z,9.60
2017-11-16T13:40:24.824Z,9.60
2017-11-16T13:42:53.143Z,9.50
2017-11-16T13:45:20.718Z,9.50
2017-11-16T13:47:48.316Z,9.40
2017-11-16T13:50:15.869Z,9.40
2017-11-16T13:52:43.424Z,9.40
2017-11-16T13:55:11.015Z,9.30
2017-11-16T13:57:38.596Z,9.40
2017-11-16T14:00:06.145Z,9.30
2017-11-16T14:02:33.731Z,9.30
2017-11-16T14:05:01.293Z,9.20
2017-11-16T14:07:28.845Z,9.30
2017-11-16T14:09:56.470Z,9.20
2017-11-16T14:12:24.783Z,9.10
2017-11-16T14:14:52.322Z,9.00
2017-11-16T14:17:20.663Z,8.90
2017-11-16T14:19:48.210Z,9.00
2017-11-16T14:22:16.547Z,8.90
2017-11-16T14:24:44.105Z,8.90
2017-11-16T14:27:11.709Z,8.90
2017-11-16T14:29:39.293Z,8.90
2017-11-16T14:32:06.829Z,8.90
2017-11-16T14:34:34.385Z,8.90
2017-11-16T14:37:01.978Z,8.90
2017-11-16T14:39:29.546Z,8.80
2017-11-16T14:41:57.087Z,8.80
2017-11-16T14:44:25.434Z,8.80
2017-11-16T14:46:52.998Z,8.80
2017-11-16T14:49:20.584Z,8.70
2017-11-16T14:51:48.901Z,8.70
2017-11-16T14:54:16.474Z,8.70
2017-11-16T14:56:44.792Z,8.70
2017-11-16T14:59:12.357Z,8.70
2017-11-16T15:01:39.923Z,8.70
2017-11-16T15:04:07.468Z,8.80
2017-11-16T15:06:35.053Z,8.70
2017-11-16T15:09:02.630Z,8.70
2017-11-16T15:11:30.197Z,8.70
2017-11-16T15:13:57.788Z,8.60
2017-11-16T15:16:26.124Z,8.60
2017-11-16T15:18:53.685Z,8.60
2017-11-16T15:21:21.252Z,8.50
2017-11-16T15:23:48.800Z,8.60
2017-11-16T15:26:16.389Z,8.60
2017-11-16T15:28:43.929Z,8.50
2017-11-16T15:31:11.465Z,8.50
2017-11-16T15:33:39.059Z,8.50
2017-11-16T15:36:06.629Z,8.60
2017-11-16T15:38:34.194Z,8.60
2017-11-16T15:41:01.752Z,8.60
2017-11-16T15:43:29.292Z,8.60
2017-11-16T15:45:57.634Z,8.70
2017-11-16T15:48:25.975Z,8.70
2017-11-16T15:50:53.591Z,8.70
2017-11-16T15:53:21.166Z,8.60
2017-11-16T15:55:48.738Z,8.60
2017-11-16T15:58:16.346Z,8.60
2017-11-16T16:00:43.917Z,8.60
2017-11-16T16:03:12.257Z,8.70
2017-11-16T16:05:39.817Z,8.70
2017-11-16T16:08:07.401Z,8.70
2017-11-16T16:10:34.957Z,8.70
2017-11-16T16:13:02.530Z,8.60
2017-11-16T16:15:30.081Z,8.60
2017-11-16T16:17:57.618Z,8.60
2017-11-16T16:20:25.519Z,8.60
2017-11-16T16:22:53.066Z,8.60
2017-11-16T16:25:20.624Z,8.60
2017-11-16T16:27:48.188Z,8.60
2017-11-16T16:30:15.754Z,8.60
2017-11-16T16:32:43.322Z,8.60
2017-11-16T16:35:10.880Z,8.50
2017-11-16T16:37:38.472Z,8.50
2017-11-16T16:40:06.807Z,8.50
2017-11-16T16:42:34.347Z,8.50
2017-11-16T16:45:01.930Z,8.40
2017-11-16T16:47:29.488Z,8.50
2017-11-16T16:49:57.022Z,8.50
2017-11-16T16:52:24.608Z,8.40
2017-11-16T16:54:52.161Z,8.50
2017-11-16T16:57:19.717Z,8.50
2017-11-16T16:59:47.287Z,8.50
2017-11-16T17:02:14.840Z,8.50
2017-11-16T17:04:42.396Z,8.50
2017-11-16T17:07:09.965Z,8.50
2017-11-16T17:09:37.497Z,8.50
2017-11-16T17:12:05.827Z,8.50
2017-11-16T17:14:33.394Z,8.50
2017-11-16T17:17:00.960Z,8.40
2017-11-16T17:19:28.514Z,8.40
2017-11-16T17:21:56.092Z,8.50
2017-11-16T17:24:23.630Z,8.40
2017-11-16T17:26:51.189Z,8.40
2017-11-16T17:29:18.748Z,8.40
2017-11-16T17:31:46.297Z,8.50
2017-11-16T17:34:13.875Z,8.50
2017-11-16T17:36:41.451Z,8.50
2017-11-16T17:39:08.996Z,8.40
2017-11-16T17:41:36.553Z,8.40
2017-11-16T17:44:04.116Z,8.40
2017-11-16T17:46:31.669Z,8.40
2017-11-16T17:48:59.229Z,8.50
2017-11-16T17:51:26.824Z,8.50
2017-11-16T17:53:54.376Z,8.50
2017-11-16T17:56:21.917Z,8.50
2017-11-16T17:58:49.485Z,8.50
2017-11-16T18:01:17.034Z,8.50
2017-11-16T18:03:44.593Z,8.40
2017-11-16T18:06:12.175Z,8.40
2017-11-16T18:08:39.743Z,8.40
2017-11-16T18:11:07.282Z,8.40
2017-11-16T18:13:34.844Z,8.40
2017-11-16T18:16:02.381Z,8.40
2017-11-16T18:18:30.714Z,8.40
2017-11-16T18:20:58.250Z,8.50
2017-11-16T18:23:25.796Z,8.40
2017-11-16T18:25:53.385Z,8.40
2017-11-16T18:28:20.938Z,8.50
2017-11-16T18:30:48.504Z,8.50
2017-11-16T18:33:16.093Z,8.50
2017-11-16T18:35:43.690Z,8.50
2017-11-16T18:38:11.995Z,8.50
2017-11-16T18:40:39.571Z,8.40
2017-11-16T18:43:07.102Z,8.50
2017-11-16T18:45:34.680Z,8.60
2017-11-16T18:48:02.263Z,8.60
2017-11-16T18:50:29.797Z,8.60
2017-11-16T18:52:57.375Z,8.60
2017-11-16T18:55:24.926Z,8.60
2017-11-16T18:57:52.495Z,8.60
2017-11-16T19:00:20.039Z,8.60
2017-11-16T19:02:47.602Z,8.60
2017-11-16T19:05:15.184Z,8.70
2017-11-16T19:07:42.734Z,8.70
2017-11-16T19:10:10.315Z,8.60
2017-11-16T19:12:37.869Z,8.60
2017-11-16T19:15:05.407Z,8.60
2017-11-16T19:17:32.977Z,8.60
2017-11-16T19:20:00.519Z,8.60
2017-11-16T19:22:28.841Z,8.50
2017-11-16T19:24:56.407Z,8.50
2017-11-16T19:27:23.963Z,8.60
2017-11-16T19:29:51.530Z,8.60
2017-11-16T19:32:19.103Z,8.60
2017-11-16T19:34:46.651Z,8.50
2017-11-16T19:37:14.214Z,8.50
2017-11-16T19:39:41.778Z,8.40
2017-11-16T19:42:09.366Z,8.40
2017-11-16T19:44:37.684Z,8.40
2017-11-16T19:47:06.002Z,8.40
2017-11-16T19:49:33.555Z,8.40
2017-11-16T19:52:01.164Z,8.30
2017-11-16T19:54:28.705Z,8.30
2017-11-16T19:56:56.270Z,8.30
2017-11-16T19:59:23.849Z,8.30
2017-11-16T20:01:51.408Z,8.20
2017-11-16T20:04:18.986Z,8.20
2017-11-16T20:06:47.290Z,8.20
2017-11-16T20:09:14.841Z,8.20
2017-11-16T20:11:42.443Z,8.20
2017-11-16T20:14:09.994Z,8.10
2017-11-16T20:16:37.545Z,8.10
2017-11-16T20:19:05.112Z,8.10
2017-11-16T20:21:32.650Z,8.10
2017-11-16T20:24:00.973Z,8.00
2017-11-16T20:26:29.305Z,8.00
2017-11-16T20:28:57.624Z,8.10
2017-11-16T20:31:25.183Z,8.00
2017-11-16T20:33:52.769Z,8.10
2017-11-16T20:36:20.310Z,8.10
2017-11-16T20:38:53.606Z,8.10
2017-11-16T20:44:32.041Z,8.00
2017-11-16T20:47:14.475Z,8.10
2017-11-16T20:50:01.785Z,8.10
2017-11-16T20:55:26.478Z,8.10
2017-11-16T20:57:54.020Z,8.10
2017-11-16T21:00:22.337Z,8.20
2017-11-16T21:02:49.934Z,8.10
2017-11-16T21:05:17.471Z,8.10
2017-11-16T21:07:45.006Z,8.10
2017-11-16T21:10:12.570Z,8.20
2017-11-16T21:12:40.136Z,8.10
2017-11-16T21:15:07.706Z,8.10
2017-11-16T21:17:35.295Z,8.10
2017-11-16T21:20:02.858Z,8.10
2017-11-16T21:22:30.418Z,8.20
2017-11-16T21:24:58.000Z,8.20
2017-11-16T21:27:26.328Z,8.20
2017-11-16T21:29:53.868Z,8.20
2017-11-16T21:32:21.459Z,8.20
2017-11-16T21:34:49.004Z,8.20
2017-11-16T21:37:16.573Z,8.20
2017-11-16T21:39:44.141Z,8.20
2017-11-16T21:42:11.692Z,8.20
2017-11-16T21:44:39.234Z,8.20
2017-11-16T21:47:06.792Z,8.20
2017-11-16T21:49:35.259Z,8.30
2017-11-16T21:52:03.617Z,8.30
2017-11-16T21:54:31.947Z,8.30
2017-11-16T21:56:59.530Z,8.20
2017-11-16T21:59:27.067Z,8.30
2017-11-16T22:01:54.626Z,8.30
2017-11-16T22:04:22.166Z,8.30
2017-11-16T22:06:50.515Z,8.50
2017-11-16T22:09:18.841Z,8.50
2017-11-16T22:11:47.139Z,8.50
2017-11-16T22:14:14.698Z,8.50
2017-11-16T22:16:42.246Z,8.60
2017-11-16T22:19:09.821Z,8.70
2017-11-16T22:21:37.363Z,8.70
2017-11-16T22:24:04.909Z,8.70
2017-11-16T22:26:33.259Z,8.80
2017-11-16T22:29:01.581Z,8.80
2017-11-16T22:31:29.887Z,8.80
2017-11-16T22:33:57.453Z,8.80
2017-11-16T22:36:25.018Z,8.80
2017-11-16T22:38:52.553Z,8.70
2017-11-16T22:41:20.887Z,8.70
2017-11-16T22:43:48.447Z,8.70
2017-11-16T22:46:15.990Z,8.80
2017-11-16T22:48:43.566Z,8.80
2017-11-16T22:51:11.108Z,8.80
2017-11-16T22:53:38.650Z,8.80
2017-11-16T22:56:06.217Z,8.80
2017-11-16T22:58:33.746Z,8.80
2017-11-16T23:01:02.063Z,8.80
2017-11-16T23:03:29.641Z,8.80
2017-11-16T23:05:57.194Z,8.80
2017-11-16T23:08:24.765Z,8.80
2017-11-16T23:10:52.321Z,8.80
2017-11-16T23:13:19.904Z,8.80
2017-11-16T23:15:47.462Z,8.80
2017-11-16T23:18:15.012Z,8.90
2017-11-16T23:20:42.580Z,8.90
2017-11-16T23:23:10.149Z,8.90
2017-11-16T23:25:37.713Z,8.90
2017-11-16T23:28:05.292Z,8.90
2017-11-16T23:30:32.818Z,8.90
2017-11-16T23:33:00.386Z,8.90
2017-11-16T23:35:28.693Z,9.00
2017-11-16T23:37:56.282Z,9.00
2017-11-16T23:40:24.612Z,9.00
2017-11-16T23:42:52.166Z,9.00
2017-11-16T23:45:19.747Z,9.00
2017-11-16T23:47:47.301Z,9.00
2017-11-16T23:50:14.869Z,9.00
2017-11-16T23:52:42.442Z,9.00
2017-11-16T23:55:10.000Z,9.00
2017-11-16T23:57:37.540Z,9.00
